METAR Analyzer

一覧表示

Hello, Guest. (Login)

RJCC/CTS  -  札幌/新千歳

観測日時
2020-10-20 02:30 (UTC) (28分前)
気温
16
露点
5
湿数
11
相対湿度
48%
QNH
1023.7hPa
推定現地気圧
1020.7hPa
推定海面気圧
1023.7hPa
体感温度
10.8
(無風時)
16.8
HI
14.9
気温前日比
-1
体感温度前日比
+1.4
HI前日比
-1.3
水平視程
>10000m
鉛直視程
データなし
雲底高度
6000ft AGL
V/I
VMC (VFR)
RVR
No RVR data
卓越風
3kt from 20° (320° ~ 80°)
ガスト
No gust
降水
報告なし
その他の天気
報告なし
少しの(1/8) 積雲 @ 3000ft AGL / 隙間のある(5/8) 積雲 @ 6000ft AGL

RJCC 200230Z 02003KT 320V080 9999 FEW030 BKN060 16/05 Q1023 RMK 1CU030 5CU060 A3023

RJTT/HND  -  東京/羽田

観測日時
2020-10-20 02:30 (UTC) (28分前)
気温
19
露点
11
湿数
8
相対湿度
59.7%
QNH
1025.1hPa
推定現地気圧
1024.4hPa
推定海面気圧
1025.1hPa
体感温度
11
(無風時)
19.3
HI
18.5
気温前日比
+1
体感温度前日比
+0.9
HI前日比
+1.2
水平視程
>10000m
鉛直視程
データなし
雲底高度
Unknown
V/I
判定不可
RVR
No RVR data
卓越風
9kt from 20°
ガスト
No gust
降水
報告なし
その他の天気
報告なし
少しの(1/8) 積雲 @ 3000ft AGL / 隙間のある雲 @ 不明な高さ

RJTT 200230Z 02009KT 9999 FEW030 BKN/// 19/11 Q1025 NOSIG RMK 1CU030 A3027

RJAA/NRT  -  東京/成田

観測日時
2020-10-20 02:30 (UTC) (28分前)
気温
20
露点
13
湿数
7
相対湿度
64%
QNH
1025.1hPa
推定現地気圧
1023.8hPa
推定海面気圧
1025.1hPa
体感温度
11.8
(無風時)
20.2
HI
19.7
気温前日比
+2
体感温度前日比
+0.2
HI前日比
+2.1
水平視程
>10000m
鉛直視程
データなし
雲底高度
Unknown
V/I
判定不可
RVR
No RVR data
卓越風
11kt from 20° (350° ~ 50°)
ガスト
No gust
降水
報告なし
その他の天気
報告なし
少しの(1/8) 積雲 @ 1500ft AGL / 隙間のある雲 @ 不明な高さ

RJAA 200230Z 02011KT 350V050 9999 FEW015 BKN/// 20/13 Q1025 NOSIG RMK 1CU015 A3027

RJGG/NGO  -  名古屋/中部

観測日時
2020-10-20 02:30 (UTC) (28分前)
気温
17
露点
11
湿数
6
相対湿度
67.7%
QNH
1024.4hPa
推定現地気圧
1023.9hPa
推定海面気圧
1024.4hPa
体感温度
9.4
(無風時)
18.1
HI
16.5
気温前日比
+1
体感温度前日比
+0.7
HI前日比
+1
水平視程
>10000m
鉛直視程
データなし
雲底高度
No dense clouds
V/I
VMC (VFR)
RVR
No RVR data
卓越風
7kt from 320°
ガスト
No gust
降水
報告なし
その他の天気
報告なし
少しの(1/8) 積雲 @ 3000ft AGL

RJGG 200230Z 32007KT 9999 FEW030 17/11 Q1024 NOSIG RMK 1CU030 A3025

RJOO/ITM  -  大阪/伊丹

観測日時
2020-10-20 02:00 (UTC) (58分前)
気温
19
露点
14
湿数
5
相対湿度
72.7%
QNH
1025.1hPa
推定現地気圧
1023.6hPa
推定海面気圧
1025.0hPa
体感温度
14.3
(無風時)
19.8
HI
18.9
気温前日比
+4
体感温度前日比
+3.1
HI前日比
+3.9
水平視程
>10000m
鉛直視程
データなし
雲底高度
No dense clouds
V/I
VMC (VFR)
RVR
No RVR data
卓越風
3kt from 130° (80° ~ 200°)
ガスト
No gust
降水
報告なし
その他の天気
報告なし
少しの(1/8) 積雲 @ 3000ft AGL

RJOO 200200Z 13003KT 080V200 9999 FEW030 19/14 Q1025 RMK 1CU030 A3027

RJBB/KIX  -  大阪/関西

観測日時
2020-10-20 02:30 (UTC) (28分前)
気温
19
露点
13
湿数
6
相対湿度
68.2%
QNH
1024hPa
推定現地気圧
1023.4hPa
推定海面気圧
1024.0hPa
体感温度
11.8
(無風時)
19.6
HI
18.7
気温前日比
+3
体感温度前日比
+5.2
HI前日比
+2.9
水平視程
>10000m
鉛直視程
データなし
雲底高度
No dense clouds
V/I
VMC (VFR)
RVR
No RVR data
卓越風
7kt from 40° (10° ~ 70°)
ガスト
No gust
降水
報告なし
その他の天気
報告なし
少しの雲 @ 2000ft AGL

RJBB 200230Z 04007KT 010V070 9999 FEW020 19/13 Q1024 NOSIG

RJFF/FUK  -  福岡

観測日時
2020-10-20 02:30 (UTC) (28分前)
気温
22
露点
10
湿数
12
相対湿度
46.4%
QNH
1024hPa
推定現地気圧
1022.9hPa
推定海面気圧
1024.0hPa
体感温度
14.3
(無風時)
20.9
HI
21.5
気温前日比
±0
体感温度前日比
-0.5
HI前日比
±0
水平視程
>10000m
鉛直視程
データなし
雲底高度
No dense clouds
V/I
VMC (VFR)
RVR
No RVR data
卓越風
9kt from 80° (10° ~ 110°)
ガスト
No gust
降水
報告なし
その他の天気
報告なし
少しの雲 @ 3000ft AGL

RJFF 200230Z 08009KT 010V110 9999 FEW030 22/10 Q1024 BECMG 05009KT

ROAH/OKA  -  那覇

観測日時
2020-10-20 02:30 (UTC) (28分前)
気温
30
露点
22
湿数
8
相対湿度
62.3%
QNH
1015hPa
推定現地気圧
1014.6hPa
推定海面気圧
1014.9hPa
体感温度
23.7
(無風時)
27.7
HI
33.3
気温前日比
+1
体感温度前日比
+0.9
HI前日比
+0.5
水平視程
>10000m
鉛直視程
データなし
雲底高度
No dense clouds
V/I
VMC (VFR)
RVR
No RVR data
卓越風
18kt from 70°
ガスト
No gust
降水
報告なし
その他の天気
報告なし
少しの雲 @ 2800ft AGL / 散在する雲 @ 不明な高さ

ROAH 200230Z 07018KT 9999 FEW028 SCT/// 30/22 Q1015

9msec